Airfield :
LOGIN :

Register | Disclaimer

   EN    FR    IT 

 










Legend :    VFR   Marginal VFR   IFR   Intensive IFR   Very Intensive IFR
Visi :
Ceiling :
>= 8 km
>= 3000ft
5 to 8 km
1000 to 3000 ft
1500m to 5 km
500 to 1000 ft
800 to 1500m
200 to 500 ft
< 800m
< 200 ft
Symbols :   Thunderstorms  Fog  Heavy snow  Heavy precipitations  Wind > 20 kt
SIGMETs :     Misc.  Thunderstorms  Icing  Turbulence  Mountain Waves  Volcanic Ashes






- Airport Elevation : 203 ft
- IATA code : XMJ


LFBM - Mont-De-Marsan

CURRENT METAR :
  • 241200Z AUTO 22011KT 180V250 9999 SCT016/// BKN026/// BKN046/// ///CB 09/07 Q1009 TEMPO 3000 SHRA

EXPIRED METARs :
  • 241130Z AUTO 22009KT 180V260 9999 BKN011/// BKN016/// BKN021/// ///TCU 09/08 Q1009 TEMPO 3000 SHRA BKN015TCU
  • 241100Z AUTO 20009KT 170V250 9999 SCT010 BKN014 BKN022 08/07 Q1010 TEMPO 3000 SHRA BKN015TCU
  • 241030Z AUTO 20006KT 160V250 9999 -RA SCT022/// BKN027/// BKN036/// ///TCU 07/06 Q1010 TEMPO 3000 SHRA
  • 241000Z AUTO 20005KT 170V250 9999 -RA SCT008 SCT016 BKN022 06/05 Q1010 TEMPO 3000 SHRA BKN015TCU
  • 240930Z AUTO 19006KT 150V220 9999 FEW008 BKN020 BKN025 06/05 Q1010 TEMPO 3000 SHRA BKN015TCU
  • 240900Z AUTO 20004KT 170V260 9999 -RA SCT007 BKN011 BKN023 05/05 Q1010 TEMPO 3000 SHRA BKN015TCU

Expired Forecast.



MET'MAP, your aeronautical weather chart ! - Copyright ORBIFLY December 2007 - Disclaimer

ORBIFLY MET'MAP TEAM :

Programming & Development : Alexandra Zaïnal
Concept & original design : Baudouin d'Aumeries
Assistance for programming : Marc-Olivier Méhu
Technical & hardware support : Manuel Goepfert

Contact : metmap@orbifly.com




SOURCES & CREDITS :

   NOAA